Aérodrome :







RETROUVEZ-NOUS SUR...

 
LOGIN :

S'inscrire | Disclaimer

   EN    FR    IT 

 









Légende :    VFR   VFR Marginal   IFR   IFR Intensif   IFR Très Intensif
Visi : 
Plafond : 
>= 8 km
>= 3000ft
5 à 8 km
1000 à 3000 ft
1500m à 5 km
500 à 1000 ft
800 à 1500m
200 à 500 ft
< 800m
< 200 ft
Symboles :   Orages  Brouillard  Fortes neiges  Fortes précipitations  Vent > 20 kt






- Altitude de l'aérodrome : 118 ft
- Code IATA : YUL


CYUL - Montréal - Pierre-Elliott-Trudeau Int.

DERNIER METAR :
  • 201616Z 29005KT 10SM -SN FEW012 BKN025 OVC040 01/M01 A3002 RMK SC2SC5SC1 SLP171

METARs EXPIRÉS :
  • 201600Z 29006KT 8SM -SN FEW008 BKN012 OVC025 00/M01 A3002 RMK SF2SC5SC1 SLP171
  • 201537Z 29006KT 4SM R24L/3500VP6000FT/U -SN SCT008 BKN022 OVC038 00/M01 A3002 RMK SF3SC3SC2 SLP171
  • 201511Z 30007KT 1 1/2SM R24L/5000VP6000FT/U -SN BKN008 OVC025 M00/M01 A3003 RMK SF6NS2 SLP172
  • 201454Z 29005KT 1SM R24L/5000VP6000FT/D -SN BKN007 OVC020 M00/M01 A3003 RMK SF6NS2 SLP172
  • 201433Z 30004KT 1 3/4SM R24L/3500VP6000FT/U -SN SCT009 OVC038 M00/M02 A3002 RMK ST4SC4 SLP171
  • 201426Z 32004KT 2 1/4SM R24L/3000VP6000FT/U -SN OVC038 M00/M02 A3002 RMK SC8 SLP171
  • 201400Z 30004KT 8SM -SN OVC048 M01/M02 A3002 RMK SC8 SLP168

TAF TAF CYUL
Valide du 20 à 15h jusqu'au 21 à 12h UTC


201438Z 2015/2112 VRB03KT P6SM -SN FEW020 OVC040
TEMPO 2015/2017 21/2SM -SN SCT006 BKN020 OVC040
PROB30 2015/2017 2SM -FZDZ -SN BR BKN006 OVC020
FM201700 28005KT 5SM -SN BR SCT007 OVC015
TEMPO 2017/2021 6SM -SN OVC025
FM202100 25007KT P6SM SCT020 OVC030
TEMPO 2021/2024 P6SM -SN BKN020 OVC030
FM210000 25007KT P6SM SCT015 BKN030
FM210500 29006KT P6SM FEW030
FM211000 26006KT P6SM SCT004
PROB30 2110/2112 1SM BR BKN004 RMK NXT FCST BY 201800Z
ATIS : ENG : +1 514-633-3037 FRA : +1 514-633-3034



MET'MAP, la Météo Aéronautique d'un coup d'oeil ! - Copyright ORBIFLY Décembre 2007 - Disclaimer

ORBIFLY MET'MAP TEAM :

Programmation & Développement : Alexandra Zaïnal
Conception & Développement : Baudouin d'Aumeries
Co-Programmation & Développement : Marc-Olivier Méhu
Soutien technique & logistique : Manuel Goepfert

Contact : metmap@orbifly.com




SOURCES & CREDITS :

   NOAA